Time;durP1;ratioP1;P1;durP2;ratioP2;P2;SDS_P1;SDS_P2;PMS_P1;PMS_P2;Temp;Humidity;BMP_temperature;BMP_pressure;BME280_temperature;BME280_humidity;BME280_pressure;Samples;Min_cycle;Max_cycle;Signal;HPM_P1;HPM_P2
2021/12/07 00:01:22;;;;;;;30.63;14.98;;;;;;;-5.14;86.83;99370.63;5013251;28;20104;-83
2021/12/07 00:03:50;;;;;;;29.50;15.35;;;;;;;-5.17;86.81;99369.09;5029557;28;20107;-83
2021/12/07 00:06:18;;;;;;;31.08;16.40;;;;;;;-5.17;86.97;99361.22;5029316;28;20050;-83
2021/12/07 00:08:46;;;;;;;32.25;16.38;;;;;;;-5.16;86.77;99357.63;5029834;28;20164;-83
2021/12/07 00:11:13;;;;;;;33.75;17.58;;;;;;;-5.18;86.75;99332.41;5029320;28;20148;-82
2021/12/07 00:13:42;;;;;;;31.35;16.95;;;;;;;-5.14;86.72;99353.06;5029591;28;20063;-83
2021/12/07 00:16:11;;;;;;;27.48;11.82;;;;;;;-5.13;86.79;99349.47;5012841;28;20370;-83
2021/12/07 00:18:38;;;;;;;32.17;16.55;;;;;;;-5.14;86.65;99352.22;5028404;28;20053;-84
2021/12/07 00:21:07;;;;;;;32.15;16.05;;;;;;;-5.15;86.81;99340.03;5013032;28;20456;-83
2021/12/07 00:23:35;;;;;;;34.50;15.88;;;;;;;-5.14;86.99;99333.78;5031043;28;20141;-84
2021/12/07 00:26:03;;;;;;;27.85;14.20;;;;;;;-5.15;86.86;99319.81;5051450;28;20059;-82
2021/12/07 00:28:31;;;;;;;32.67;16.85;;;;;;;-5.13;87.12;99331.03;5051512;28;20057;-82
2021/12/07 00:31:09;;;;;;;32.70;17.05;;;;;;;-5.10;86.81;99322.84;5051610;28;20111;-83
2021/12/07 00:33:50;;;;;;;32.08;16.42;;;;;;;-5.08;87.14;99322.72;5049960;28;20455;-83
2021/12/07 00:36:19;;;;;;;28.40;14.23;;;;;;;-5.12;87.34;99311.63;5050103;28;20064;-83
2021/12/07 00:38:47;;;;;;;34.25;16.55;;;;;;;-5.12;87.35;99303.72;5041757;28;20045;-82
2021/12/07 00:41:14;;;;;;;23.85;11.23;;;;;;;-5.12;87.41;99303.72;5067905;28;20057;-85
2021/12/07 00:43:41;;;;;;;33.65;16.40;;;;;;;-5.11;87.33;99308.06;5053161;28;20045;-83
2021/12/07 00:46:11;;;;;;;29.25;15.57;;;;;;;-5.11;87.44;99301.97;5051465;28;20053;-83
2021/12/07 00:48:38;;;;;;;28.25;16.00;;;;;;;-5.09;87.67;99297.38;5050109;28;20134;-83
2021/12/07 00:51:06;;;;;;;31.58;15.63;;;;;;;-5.11;87.66;99291.44;5050411;28;20053;-82
2021/12/07 00:53:33;;;;;;;32.85;16.77;;;;;;;-5.05;87.70;99293.50;5050225;28;20052;-83
2021/12/07 00:56:03;;;;;;;33.60;16.85;;;;;;;-5.07;87.87;99282.28;5052589;28;20053;-84
2021/12/07 00:58:31;;;;;;;30.02;15.30;;;;;;;-5.08;87.46;99286.72;5050595;28;20045;-83
2021/12/07 01:01:04;;;;;;;28.83;15.45;;;;;;;-5.04;87.42;99276.72;5073766;28;20068;-84
2021/12/07 01:03:33;;;;;;;27.85;14.50;;;;;;;-5.06;87.62;99270.78;5073246;28;20431;-83
2021/12/07 01:08:58;;;;;;;28.23;15.20;;;;;;;-5.04;87.66;99274.94;5090967;28;20074;-83
2021/12/07 01:25:24;;;;;;;29.25;15.02;;;;;;;-4.98;87.80;99255.13;5091388;28;20465;-83
2021/12/07 01:27:54;;;;;;;25.77;12.95;;;;;;;-4.93;87.88;99260.81;5073221;28;20051;-83
2021/12/07 01:30:35;;;;;;;32.30;14.70;;;;;;;-4.92;87.89;99259.81;5074808;28;20476;-81
2021/12/07 01:59:36;;;;;;;27.65;14.48;;;;;;;-4.85;88.35;99213.53;5076340;28;20044;-83
2021/12/07 02:02:06;;;;;;;26.35;14.10;;;;;;;-4.80;88.55;99203.41;5076493;28;20077;-83
2021/12/07 02:04:34;;;;;;;28.85;15.50;;;;;;;-4.75;88.25;99205.63;5076077;28;20578;-82
2021/12/07 02:07:02;;;;;;;28.80;15.02;;;;;;;-4.73;88.13;99202.88;5076353;28;20048;-83
2021/12/07 02:09:30;;;;;;;29.52;15.13;;;;;;;-4.72;88.19;99189.53;5076037;28;20521;-83
2021/12/07 02:12:01;;;;;;;26.52;14.00;;;;;;;-4.71;87.96;99193.00;5076344;28;20070;-82
2021/12/07 02:14:30;;;;;;;28.23;14.18;;;;;;;-4.72;88.13;99188.72;5086127;28;20062;-83
2021/12/07 02:16:59;;;;;;;28.50;14.48;;;;;;;-4.72;87.82;99196.63;5085968;28;20074;-83
2021/12/07 02:19:27;;;;;;;24.70;14.57;;;;;;;-4.73;88.36;99187.06;5075935;28;20093;-83
2021/12/07 02:21:55;;;;;;;26.65;14.10;;;;;;;-4.70;87.94;99182.34;5094278;28;20127;-83
2021/12/07 02:24:32;;;;;;;26.67;14.43;;;;;;;-4.71;88.22;99175.41;5076145;28;20051;-82
2021/12/07 02:27:00;;;;;;;25.15;14.07;;;;;;;-4.68;88.39;99179.56;5075928;28;20502;-83
2021/12/07 02:29:27;;;;;;;22.20;12.57;;;;;;;-4.67;88.19;99168.88;5094301;28;20048;-84
2021/12/07 02:31:56;;;;;;;28.15;14.93;;;;;;;-4.64;88.08;99165.13;5104636;28;20039;-84
2021/12/07 02:34:24;;;;;;;22.67;12.90;;;;;;;-4.65;88.15;99163.47;5075856;28;20036;-84
2021/12/07 02:36:54;;;;;;;27.63;13.63;;;;;;;-4.64;88.12;99147.50;5042254;28;20435;-84
2021/12/07 02:39:37;;;;;;;27.77;15.60;;;;;;;-4.63;88.24;99156.28;5075244;28;20100;-83
2021/12/07 02:42:07;;;;;;;24.48;13.20;;;;;;;-4.65;88.26;99150.31;5058852;28;20105;-83
2021/12/07 02:44:35;;;;;;;25.17;13.70;;;;;;;-4.67;88.37;99147.81;5075510;28;20127;-83
2021/12/07 02:47:07;;;;;;;30.95;12.65;;;;;;;-4.64;88.51;99136.16;5075916;28;20040;-83
2021/12/07 02:49:34;;;;;;;22.88;12.50;;;;;;;-4.64;89.10;99138.78;5075465;28;20044;-83
2021/12/07 02:52:03;;;;;;;25.52;14.23;;;;;;;-4.64;89.64;99141.41;5075838;28;20054;-83
2021/12/07 02:54:34;;;;;;;25.95;13.60;;;;;;;-4.65;90.01;99135.31;5075078;28;20507;-83
2021/12/07 02:57:05;;;;;;;21.50;12.45;;;;;;;-4.59;90.35;99131.28;5093049;28;20047;-83
2021/12/07 02:59:33;;;;;;;27.48;13.38;;;;;;;-4.56;90.47;99141.53;5075196;28;20074;-83
2021/12/07 03:02:05;;;;;;;24.27;14.02;;;;;;;-4.58;90.41;99127.69;5075214;28;20139;-83
2021/12/07 03:04:38;;;;;;;21.02;12.23;;;;;;;-4.56;90.48;99123.09;5075060;28;20044;-83
2021/12/07 03:26:11;;;;;;;21.17;11.55;;;;;;;-4.50;90.12;99069.84;5093241;28;20048;-83
2021/12/07 03:28:48;;;;;;;24.45;13.60;;;;;;;-4.44;89.98;99065.78;5059398;28;20052;-83
2021/12/07 03:31:19;;;;;;;21.67;13.40;;;;;;;-4.45;89.81;99057.06;5074615;28;20174;-84
2021/12/07 03:33:49;;;;;;;21.13;12.65;;;;;;;-4.45;89.73;99064.94;5074684;28;20071;-83
2021/12/07 03:36:17;;;;;;;23.83;12.55;;;;;;;-4.43;89.67;99059.53;5074113;28;20048;-83
2021/12/07 03:38:46;;;;;;;22.98;13.05;;;;;;;-4.45;89.53;99057.06;5073810;28;20055;-84
2021/12/07 03:41:13;;;;;;;22.17;12.98;;;;;;;-4.40;89.54;99049.53;5074200;28;20048;-83
2021/12/07 03:43:41;;;;;;;22.90;12.07;;;;;;;-4.40;89.46;99044.25;5093222;28;20040;-83
2021/12/07 03:46:09;;;;;;;21.70;13.20;;;;;;;-4.41;89.37;99042.59;5057799;28;20071;-83
2021/12/07 03:48:37;;;;;;;20.40;11.75;;;;;;;-4.36;89.13;99045.59;5093864;28;20075;-83
2021/12/07 03:51:04;;;;;;;20.92;12.10;;;;;;;-4.37;89.09;99046.59;5095661;28;20127;-83
2021/12/07 03:53:33;;;;;;;15.75;10.85;;;;;;;-4.35;88.90;99030.66;5074663;28;20050;-84
2021/12/07 03:56:06;;;;;;;20.35;11.60;;;;;;;-4.37;88.75;99043.97;5074373;28;20499;-84
2021/12/07 03:58:37;;;;;;;21.58;12.02;;;;;;;-4.39;88.65;99018.75;5073512;28;20055;-83
2021/12/07 04:01:09;;;;;;;21.42;12.80;;;;;;;-4.30;88.40;99024.91;5056813;28;20058;-83
2021/12/07 04:03:38;;;;;;;19.20;9.95;;;;;;;-4.28;88.68;99025.59;5073936;28;20052;-82
2021/12/07 04:06:06;;;;;;;22.13;12.77;;;;;;;-4.29;88.77;99016.88;5074016;28;20526;-84
2021/12/07 04:08:39;;;;;;;20.45;11.55;;;;;;;-4.25;88.96;99027.97;5092132;28;20048;-83
2021/12/07 04:11:06;;;;;;;22.77;13.00;;;;;;;-4.24;88.90;99021.69;5074511;28;20097;-84
2021/12/07 04:13:35;;;;;;;20.88;12.98;;;;;;;-4.24;89.06;99014.63;5075052;28;20147;-83
2021/12/07 04:16:08;;;;;;;23.13;13.55;;;;;;;-4.23;88.90;99015.44;5041127;28;20097;-84
2021/12/07 04:18:42;;;;;;;20.77;11.45;;;;;;;-4.29;89.12;98987.06;5073056;28;20052;-83
2021/12/07 04:21:09;;;;;;;21.05;13.20;;;;;;;-4.31;89.12;98984.56;5094605;28;20137;-84
2021/12/07 04:23:37;;;;;;;22.33;11.68;;;;;;;-4.20;89.12;98992.25;5075547;28;20478;-84
2021/12/07 04:26:13;;;;;;;22.17;11.70;;;;;;;-4.26;89.15;98979.66;5091870;28;20127;-84
2021/12/07 04:28:42;;;;;;;19.65;11.77;;;;;;;-4.19;89.24;98977.28;5092177;28;20515;-84
2021/12/07 04:31:10;;;;;;;16.40;9.98;;;;;;;-4.20;88.85;98970.34;5074006;28;20430;-83
2021/12/07 04:33:37;;;;;;;18.73;12.65;;;;;;;-4.18;88.93;98971.84;5091342;28;20056;-84
2021/12/07 04:36:08;;;;;;;21.15;11.50;;;;;;;-4.10;89.19;98981.66;5092451;28;20044;-85
2021/12/07 04:38:37;;;;;;;19.30;11.57;;;;;;;-4.09;89.17;98967.47;5095291;28;20510;-85
2021/12/07 04:41:05;;;;;;;20.67;11.63;;;;;;;-4.10;89.04;98973.75;5092700;28;20502;-84
2021/12/07 04:43:35;;;;;;;18.40;11.73;;;;;;;-4.08;89.29;98968.28;5073301;28;20048;-84
2021/12/07 04:59:20;;;;;;;24.92;13.02;;;;;;;-4.03;89.49;98953.66;5091711;28;20056;-85
2021/12/07 05:01:48;;;;;;;18.48;10.82;;;;;;;-4.01;89.37;98951.72;5091159;28;20059;-85
2021/12/07 05:04:21;;;;;;;16.63;9.73;;;;;;;-3.98;89.46;98948.78;5091428;28;20043;-84
2021/12/07 05:06:52;;;;;;;16.45;10.45;;;;;;;-3.96;89.39;98944.19;5095452;28;20090;-84
2021/12/07 05:09:34;;;;;;;22.73;12.38;;;;;;;-3.92;89.32;98944.72;5095209;28;20048;-84
2021/12/07 05:14:35;;;;;;;19.95;11.80;;;;;;;-3.88;89.70;98950.50;5094702;28;20057;-84
2021/12/07 05:17:21;;;;;;;17.77;10.85;;;;;;;-3.89;89.46;98944.41;5096740;28;20059;-85
2021/12/07 05:39:09;;;;;;;21.08;11.68;;;;;;;-3.83;89.86;98924.50;5094397;28;20048;-84
2021/12/07 05:41:36;;;;;;;17.80;10.25;;;;;;;-3.85;90.06;98915.91;5076193;28;20044;-83
2021/12/07 05:44:04;;;;;;;17.50;10.23;;;;;;;-3.83;89.95;98920.03;5094777;28;20060;-83
2021/12/07 05:46:31;;;;;;;20.35;12.05;;;;;;;-3.81;90.35;98917.25;5094576;28;20414;-84
2021/12/07 05:48:58;;;;;;;20.23;11.05;;;;;;;-3.80;90.25;98918.91;5094501;28;20048;-84
2021/12/07 05:51:25;;;;;;;20.00;11.38;;;;;;;-3.80;90.25;98909.22;5096166;28;20059;-83
2021/12/07 05:53:52;;;;;;;21.33;11.20;;;;;;;-3.76;90.40;98907.06;5084565;28;20067;-83
2021/12/07 05:56:20;;;;;;;20.17;10.90;;;;;;;-3.74;90.42;98916.50;5066692;28;20043;-83
2021/12/07 05:58:47;;;;;;;17.38;10.82;;;;;;;-3.67;90.39;98910.56;5082297;28;20048;-83
2021/12/07 06:01:14;;;;;;;18.63;11.02;;;;;;;-3.66;90.34;98907.78;5105710;28;20051;-82
2021/12/07 06:03:41;;;;;;;19.88;11.32;;;;;;;-3.67;90.48;98892.13;5102954;28;20048;-82
2021/12/07 06:06:13;;;;;;;17.15;10.10;;;;;;;-3.66;90.46;98894.59;5103144;28;20103;-83
2021/12/07 06:08:40;;;;;;;16.20;8.80;;;;;;;-3.65;90.51;98898.88;5082109;28;20052;-82
2021/12/07 06:11:07;;;;;;;17.40;10.80;;;;;;;-3.61;90.36;98900.25;5103731;28;20307;-84
2021/12/07 06:13:34;;;;;;;16.73;9.85;;;;;;;-3.62;90.62;98909.16;5103379;28;20510;-84
2021/12/07 06:16:06;;;;;;;16.85;9.25;;;;;;;-3.61;90.55;98904.69;5087550;28;20412;-85
2021/12/07 06:18:35;;;;;;;18.75;11.18;;;;;;;-3.63;90.49;98912.75;4730100;28;10000724;-89
2021/12/07 06:21:03;;;;;;;17.30;10.50;;;;;;;-3.62;90.40;98901.22;5096220;28;20048;-87
2021/12/07 06:23:30;;;;;;;17.17;10.38;;;;;;;-3.64;90.41;98903.19;5090929;28;20131;-85
2021/12/07 06:25:59;;;;;;;16.98;10.73;;;;;;;-3.61;90.42;98907.34;5100762;28;20040;-84
2021/12/07 06:28:26;;;;;;;15.85;10.13;;;;;;;-3.54;90.39;98905.72;5093337;28;20113;-82
2021/12/07 06:30:54;;;;;;;18.45;10.35;;;;;;;-3.55;90.34;98914.59;5092520;28;20048;-83
2021/12/07 06:33:24;;;;;;;16.33;9.73;;;;;;;-3.59;90.26;98908.84;5074964;28;20160;-82
2021/12/07 06:35:56;;;;;;;13.95;8.18;;;;;;;-3.60;90.21;98904.53;5092988;28;20120;-84
2021/12/07 06:38:29;;;;;;;12.90;8.32;;;;;;;-3.58;90.43;98899.91;5080935;28;20051;-84
2021/12/07 06:40:56;;;;;;;17.45;9.82;;;;;;;-3.56;90.25;98890.03;5072775;28;20040;-84
2021/12/07 06:43:24;;;;;;;18.10;11.05;;;;;;;-3.50;90.30;98889.41;5074508;28;20051;-83
2021/12/07 06:45:51;;;;;;;15.60;8.82;;;;;;;-3.49;90.09;98888.44;5104402;28;20075;-83
2021/12/07 06:48:19;;;;;;;15.60;9.13;;;;;;;-3.46;90.26;98889.13;5072682;28;20510;-86
2021/12/07 06:50:47;;;;;;;17.13;9.60;;;;;;;-3.42;90.37;98885.16;5090602;28;20113;-88
2021/12/07 06:53:14;;;;;;;18.10;9.93;;;;;;;-3.41;90.51;98873.63;5091834;28;20051;-85
2021/12/07 06:55:42;;;;;;;15.23;9.70;;;;;;;-3.44;90.39;98880.06;5091750;28;20044;-85
2021/12/07 06:58:09;;;;;;;13.55;8.32;;;;;;;-3.45;90.26;98874.91;5086889;28;20044;-84
2021/12/07 07:00:37;;;;;;;18.38;8.98;;;;;;;-3.47;90.34;98863.69;5104328;28;20044;-82
2021/12/07 07:03:05;;;;;;;11.98;7.90;;;;;;;-3.49;90.39;98867.31;5101819;28;20142;-82
2021/12/07 07:05:33;;;;;;;12.40;5.20;;;;;;;-3.47;90.36;98864.50;5090008;28;20434;-87
2021/12/07 07:08:01;;;;;;;15.00;8.52;;;;;;;-3.54;90.26;98864.34;5081512;28;20062;-82
2021/12/07 07:10:29;;;;;;;14.30;9.35;;;;;;;-3.39;90.08;98892.75;5092373;28;20060;-84
2021/12/07 07:12:56;;;;;;;13.55;8.75;;;;;;;-3.39;90.20;98875.13;5100003;28;20050;-85
2021/12/07 07:15:25;;;;;;;12.30;7.65;;;;;;;-3.47;90.07;98853.13;5088867;28;20048;-84
2021/12/07 07:17:52;;;;;;;14.23;8.05;;;;;;;-3.34;89.96;98878.13;5103274;28;20055;-84
2021/12/07 07:20:19;;;;;;;12.82;8.02;;;;;;;-3.30;90.02;98875.97;5091454;28;20414;-86
2021/12/07 07:22:46;;;;;;;12.43;7.93;;;;;;;-3.30;89.80;98870.69;5108191;28;20167;-85
2021/12/07 07:25:14;;;;;;;10.50;6.72;;;;;;;-3.25;90.05;98871.03;5101172;28;20147;-85
2021/12/07 07:27:42;;;;;;;15.75;8.20;;;;;;;-3.23;89.58;98862.97;5090129;28;20128;-83
2021/12/07 07:30:10;;;;;;;12.02;7.18;;;;;;;-3.25;89.45;98846.47;5077207;28;20105;-84
2021/12/07 07:32:38;;;;;;;15.15;8.13;;;;;;;-3.25;89.45;98855.22;5109507;28;20058;-86
2021/12/07 07:35:09;;;;;;;12.85;8.02;;;;;;;-3.17;89.19;98864.97;5112255;28;20087;-85
2021/12/07 07:37:37;;;;;;;13.30;6.80;;;;;;;-3.16;89.35;98859.53;5107883;28;20051;-85
2021/12/07 07:40:08;;;;;;;9.70;6.38;;;;;;;-3.10;89.08;98858.88;5078841;28;20052;-86
2021/12/07 07:42:39;;;;;;;13.00;7.63;;;;;;;-3.10;88.85;98832.47;5088188;28;20043;-87
2021/12/07 07:45:25;;;;;;;14.25;8.82;;;;;;;-3.16;88.77;98862.19;5092829;28;20047;-83
2021/12/07 07:47:56;;;;;;;13.43;8.15;;;;;;;-3.13;88.68;98851.28;5091784;28;20102;-84
2021/12/07 07:50:24;;;;;;;11.73;7.75;;;;;;;-3.15;88.52;98842.69;5074388;28;20110;-83
2021/12/07 07:52:51;;;;;;;13.32;7.18;;;;;;;-3.16;88.61;98862.19;5069344;28;20478;-83
2021/12/07 07:55:18;;;;;;;12.65;8.43;;;;;;;-3.19;88.97;98861.66;5098122;28;20358;-84
2021/12/07 07:57:45;;;;;;;12.13;7.78;;;;;;;-3.15;88.93;98852.44;5110157;28;20514;-84
2021/12/07 08:00:17;;;;;;;10.70;6.55;;;;;;;-3.16;88.99;98830.50;5112764;28;20054;-84
2021/12/07 08:02:47;;;;;;;11.00;7.45;;;;;;;-3.09;88.71;98836.78;5077232;28;20348;-84
2021/12/07 08:05:16;;;;;;;12.75;6.70;;;;;;;-3.08;88.83;98854.28;5085099;28;20062;-85
2021/12/07 08:07:47;;;;;;;10.77;6.97;;;;;;;-3.06;88.67;98843.56;5100028;28;20120;-84
2021/12/07 08:10:28;;;;;;;10.20;6.97;;;;;;;-3.03;88.80;98839.78;5100169;28;20528;-85
2021/12/07 08:12:58;;;;;;;9.63;6.30;;;;;;;-2.98;88.84;98826.91;5078639;28;20052;-83
2021/12/07 08:15:30;;;;;;;9.77;5.82;;;;;;;-3.00;88.54;98813.88;5101337;28;20097;-82
2021/12/07 08:17:57;;;;;;;14.68;7.47;;;;;;;-2.98;88.67;98834.84;5067990;28;20085;-82
2021/12/07 08:20:29;;;;;;;8.95;5.93;;;;;;;-2.89;88.67;98839.94;5076949;28;20046;-83
2021/12/07 08:23:03;;;;;;;11.93;6.80;;;;;;;-2.90;88.57;98845.41;5099624;28;20048;-83
2021/12/07 08:25:33;;;;;;;14.95;6.50;;;;;;;-2.85;88.54;98848.38;5099036;28;20059;-83
2021/12/07 08:28:00;;;;;;;12.05;6.40;;;;;;;-2.75;88.49;98832.41;5102101;28;20048;-82
2021/12/07 08:30:29;;;;;;;11.73;6.47;;;;;;;-2.79;88.32;98826.59;5100179;28;20039;-84
2021/12/07 08:32:56;;;;;;;16.33;7.68;;;;;;;-2.67;88.14;98840.31;5082618;28;20059;-83
2021/12/07 08:35:23;;;;;;;11.57;6.75;;;;;;;-2.57;87.59;98814.56;5104958;28;20043;-85
2021/12/07 08:37:55;;;;;;;11.38;6.78;;;;;;;-2.46;87.46;98829.25;5074439;28;20047;-83
2021/12/07 08:40:27;;;;;;;9.57;6.15;;;;;;;-2.42;87.07;98812.91;5079508;28;20043;-82
2021/12/07 08:42:57;;;;;;;10.60;5.82;;;;;;;-2.48;87.09;98800.38;5069869;28;20399;-83
2021/12/07 08:45:27;;;;;;;12.23;6.30;;;;;;;-2.52;86.61;98806.16;5102902;28;20048;-83
2021/12/07 08:47:55;;;;;;;11.32;6.50;;;;;;;-2.47;86.80;98815.22;5103476;28;20076;-83
2021/12/07 08:50:24;;;;;;;11.40;6.78;;;;;;;-2.46;86.86;98816.88;5114306;28;20565;-82
2021/12/07 08:52:54;;;;;;;11.45;6.47;;;;;;;-2.55;87.00;98809.94;5105855;28;20149;-82
2021/12/07 09:00:54;;;;;;;10.88;6.38;;;;;;;-2.25;86.71;98803.16;5115590;28;20058;-83
2021/12/07 09:03:21;;;;;;;12.27;6.93;;;;;;;-2.29;86.51;98803.66;5097253;28;20047;-82
2021/12/07 09:05:49;;;;;;;10.82;6.20;;;;;;;-2.29;86.77;98807.13;5089053;28;20048;-81
2021/12/07 09:08:16;;;;;;;13.27;7.63;;;;;;;-2.30;86.44;98802.84;5094909;28;20048;-80
2021/12/07 09:10:44;;;;;;;12.65;6.63;;;;;;;-2.40;86.90;98797.72;5090402;28;20104;-81
2021/12/07 09:13:11;;;;;;;13.75;7.32;;;;;;;-2.44;87.34;98800.84;5079553;28;20048;-81
2021/12/07 09:15:39;;;;;;;15.52;7.75;;;;;;;-2.50;87.44;98798.88;5096682;28;20112;-83
2021/12/07 09:18:06;;;;;;;12.82;7.32;;;;;;;-2.50;87.39;98793.59;5101098;28;20505;-81
2021/12/07 09:20:34;;;;;;;11.65;7.90;;;;;;;-2.42;87.32;98781.19;5080873;28;20050;-81
2021/12/07 09:23:02;;;;;;;10.25;6.10;;;;;;;-2.41;87.11;98782.84;5094365;28;20468;-81
2021/12/07 09:25:29;;;;;;;11.55;7.28;;;;;;;-2.41;87.23;98784.66;5105523;28;20071;-79
2021/12/07 09:27:57;;;;;;;11.20;7.22;;;;;;;-2.40;87.19;98775.75;5103299;28;20097;-79
2021/12/07 09:30:24;;;;;;;12.85;7.68;;;;;;;-2.42;87.55;98769.81;5098709;28;20148;-80
2021/12/07 09:32:52;;;;;;;12.15;6.78;;;;;;;-2.42;87.73;98767.16;5094181;28;20509;-80
2021/12/07 09:35:21;;;;;;;13.57;7.55;;;;;;;-2.49;87.72;98780.19;5094877;28;20089;-80
2021/12/07 09:37:49;;;;;;;10.95;7.35;;;;;;;-2.47;87.97;98775.59;5105117;28;20051;-79
2021/12/07 09:40:18;;;;;;;10.75;7.40;;;;;;;-2.47;87.87;98778.22;5087276;28;20135;-81
2021/12/07 09:42:46;;;;;;;13.63;7.90;;;;;;;-2.49;88.02;98776.75;5101304;28;20040;-79
2021/12/07 09:45:16;;;;;;;14.63;8.40;;;;;;;-2.48;87.82;98765.16;5098426;28;20571;-81
2021/12/07 09:47:44;;;;;;;14.00;8.38;;;;;;;-2.45;87.89;98764.84;5101554;28;20048;-82
2021/12/07 09:50:14;;;;;;;13.02;8.52;;;;;;;-2.47;87.82;98770.28;5110945;28;20070;-80
2021/12/07 09:52:44;;;;;;;12.60;8.20;;;;;;;-2.41;88.17;98760.88;5103693;28;20056;-81
2021/12/07 09:55:12;;;;;;;12.75;8.07;;;;;;;-2.32;87.96;98759.06;5097806;28;20047;-81
2021/12/07 09:57:40;;;;;;;9.98;7.22;;;;;;;-2.35;87.91;98770.78;5105003;28;20266;-82
2021/12/07 10:00:09;;;;;;;12.40;8.38;;;;;;;-2.40;87.95;98765.19;5106885;28;20150;-79
2021/12/07 10:02:39;;;;;;;10.90;8.65;;;;;;;-2.44;87.87;98767.31;5101380;28;20043;-81
2021/12/07 10:05:12;;;;;;;13.27;9.10;;;;;;;-2.49;88.39;98753.78;5102293;28;20044;-81
2021/12/07 10:07:40;;;;;;;11.80;7.43;;;;;;;-2.39;88.40;98764.19;5104820;28;20105;-80
2021/12/07 10:10:19;;;;;;;13.82;7.10;;;;;;;-2.33;88.24;98760.88;5091288;28;20040;-80
2021/12/07 10:12:46;;;;;;;13.45;7.75;;;;;;;-2.37;88.32;98759.56;5102987;28;20070;-80
2021/12/07 10:15:15;;;;;;;13.30;8.57;;;;;;;-2.37;88.44;98762.19;5111718;28;20046;-82
2021/12/07 10:17:42;;;;;;;12.85;7.97;;;;;;;-2.44;88.26;98748.00;5105568;28;20051;-80
2021/12/07 10:20:23;;;;;;;10.80;7.40;;;;;;;-2.49;88.59;98739.75;5099769;28;20105;-80
2021/12/07 10:22:53;;;;;;;9.98;7.40;;;;;;;-2.35;88.47;98748.81;5100195;28;20104;-81
2021/12/07 10:25:27;;;;;;;14.48;8.88;;;;;;;-2.34;88.58;98746.00;5100418;28;20552;-81
2021/12/07 10:27:56;;;;;;;14.10;9.73;;;;;;;-2.30;88.34;98747.31;5079191;28;20151;-82
2021/12/07 10:30:24;;;;;;;10.88;8.05;;;;;;;-2.29;88.61;98754.25;5088312;28;20047;-81
2021/12/07 10:33:04;;;;;;;12.75;8.80;;;;;;;-2.33;88.60;98749.47;5087326;28;20054;-80
2021/12/07 10:35:34;;;;;;;11.73;8.02;;;;;;;-2.32;88.81;98753.78;5103259;28;20386;-80
2021/12/07 10:38:13;;;;;;;12.60;8.57;;;;;;;-2.38;88.80;98743.84;5095473;28;20441;-83
2021/12/07 10:41:02;;;;;;;12.45;9.32;;;;;;;-2.36;88.98;98761.19;5102081;28;20119;-82
2021/12/07 10:44:00;;;;;;;11.18;8.25;;;;;;;-2.48;88.95;98747.53;5086167;28;20055;-80
2021/12/07 10:46:38;;;;;;;14.15;9.00;;;;;;;-2.42;89.13;98756.59;5098229;28;20100;-80
2021/12/07 10:49:26;;;;;;;13.35;7.68;;;;;;;-2.40;89.05;98736.09;5097053;28;20488;-82
2021/12/07 10:52:16;;;;;;;13.90;9.70;;;;;;;-2.35;88.90;98747.00;5104974;28;20630;-83
2021/12/07 10:54:43;;;;;;;12.68;8.30;;;;;;;-2.26;88.95;98742.50;5093436;28;20055;-81
2021/12/07 10:57:21;;;;;;;13.85;9.93;;;;;;;-2.27;89.33;98736.41;5107385;28;20089;-81
2021/12/07 10:59:57;;;;;;;12.30;8.82;;;;;;;-2.24;89.16;98740.53;5102902;28;20052;-83
2021/12/07 11:02:30;;;;;;;14.20;9.30;;;;;;;-2.29;88.91;98734.91;5101807;28;20399;-82
2021/12/07 11:04:58;;;;;;;15.45;10.45;;;;;;;-2.28;89.24;98755.06;5083507;28;20086;-81
2021/12/07 11:07:27;;;;;;;18.23;10.65;;;;;;;-2.26;89.08;98745.16;5101565;28;20465;-82
2021/12/07 11:10:18;;;;;;;21.00;12.02;;;;;;;-2.28;89.22;98740.06;5091347;28;20059;-82
2021/12/07 11:15:28;;;;;;;22.33;11.35;;;;;;;-2.22;89.51;98731.44;5085357;28;20048;-80
2021/12/07 11:18:02;;;;;;;23.48;11.18;;;;;;;-2.21;89.65;98738.34;5066999;28;20070;-80
2021/12/07 11:20:30;;;;;;;22.02;11.10;;;;;;;-2.13;89.68;98736.69;5083559;28;20048;-83
2021/12/07 11:23:04;;;;;;;17.77;10.82;;;;;;;-2.09;89.44;98738.00;5063146;28;20066;-82
2021/12/07 11:31:25;;;;;;;13.93;9.75;;;;;;;-2.03;89.43;98732.03;5101728;28;20056;-81
2021/12/07 11:34:16;;;;;;;15.23;10.07;;;;;;;-2.03;89.24;98729.38;5097915;28;20044;-81
2021/12/07 11:36:58;;;;;;;15.75;10.13;;;;;;;-2.00;89.34;98727.25;5066990;28;20121;-81
2021/12/07 11:39:31;;;;;;;18.02;11.35;;;;;;;-1.99;89.25;98736.00;5085560;28;20521;-81
2021/12/07 11:42:06;;;;;;;26.27;15.07;;;;;;;-1.94;89.49;98731.00;5110838;28;20047;-80
2021/12/07 11:44:37;;;;;;;19.83;12.68;;;;;;;-1.96;89.20;98731.19;5094034;28;20116;-81
2021/12/07 11:47:07;;;;;;;18.67;11.75;;;;;;;-2.04;89.07;98731.22;5111222;28;20081;-82
2021/12/07 11:49:36;;;;;;;16.38;11.98;;;;;;;-2.02;89.50;98739.81;5111071;28;20079;-81
2021/12/07 11:52:06;;;;;;;16.15;9.55;;;;;;;-2.04;89.61;98731.22;5117113;28;20050;-81
2021/12/07 11:54:38;;;;;;;15.43;10.52;;;;;;;-2.00;89.50;98737.81;5065990;28;20066;-81
2021/12/07 11:57:09;;;;;;;;;;;;;;;-2.01;89.85;98756.50;5105796;28;20051;-81
2021/12/07 11:59:37;;;;;;;19.67;12.32;;;;;;;-2.01;90.00;98735.34;5095635;28;19923;-81
2021/12/07 12:02:04;;;;;;;16.63;10.88;;;;;;;-1.98;90.05;98750.84;5091862;28;20044;-81
2021/12/07 12:04:32;;;;;;;17.08;11.63;;;;;;;-1.91;90.01;98749.19;5105641;28;20050;-80
2021/12/07 12:07:00;;;;;;;15.45;10.70;;;;;;;-1.96;89.87;98740.94;5100924;28;20419;-80
2021/12/07 12:09:28;;;;;;;17.73;10.48;;;;;;;-1.98;89.99;98735.00;5095405;28;20044;-80
2021/12/07 12:12:13;;;;;;;17.67;10.18;;;;;;;-1.99;89.84;98750.03;5082518;28;20040;-81
2021/12/07 12:15:05;;;;;;;14.50;10.43;;;;;;;-1.98;90.00;98756.16;5089900;28;20062;-81
2021/12/07 12:18:09;;;;;;;19.40;12.48;;;;;;;-1.96;90.31;98751.53;5103405;28;20048;-80
2021/12/07 12:21:01;;;;;;;16.80;9.60;;;;;;;-1.93;90.40;98748.53;5071118;28;20422;-84
2021/12/07 12:23:34;;;;;;;19.17;11.82;;;;;;;-1.94;90.33;98757.47;5032399;28;20072;-81
2021/12/07 12:26:04;;;;;;;14.35;9.55;;;;;;;-1.90;90.25;98758.78;5042325;28;20052;-81
2021/12/07 12:28:49;;;;;;;20.63;12.27;;;;;;;-1.90;90.58;98760.59;5055214;28;20140;-80
2021/12/07 12:31:45;;;;;;;17.80;11.18;;;;;;;-1.92;90.47;98755.47;5058349;28;20079;-81
2021/12/07 12:34:18;;;;;;;21.38;12.15;;;;;;;-2.00;90.62;98758.97;5048096;28;20076;-80
2021/12/07 12:37:20;;;;;;;18.50;12.07;;;;;;;-1.91;90.82;98775.63;5031686;28;20535;-80
2021/12/07 12:39:51;;;;;;;18.75;11.60;;;;;;;-1.93;90.85;98780.25;5021091;28;20458;-81
2021/12/07 12:42:25;;;;;;;22.52;12.32;;;;;;;-1.90;90.78;98771.16;5063783;28;20047;-80
2021/12/07 12:45:22;;;;;;;;;;;;;;;-1.90;90.59;98771.16;5068697;28;20060;-82
2021/12/07 12:48:03;;;;;;;17.20;10.70;;;;;;;-2.02;90.97;98755.69;5064838;28;19930;-82
2021/12/07 12:50:42;;;;;;;17.13;11.38;;;;;;;-1.87;91.05;98766.38;5046959;28;20091;-83
2021/12/07 12:53:19;;;;;;;66.88;29.05;;;;;;;-1.81;91.05;98763.03;5046995;28;20329;-81
2021/12/07 12:55:51;;;;;;;23.25;13.20;;;;;;;-1.77;90.91;98763.53;5072065;28;20060;-80
2021/12/07 12:58:31;;;;;;;16.50;12.23;;;;;;;-1.77;90.92;98759.06;5090594;28;20421;-80
2021/12/07 13:01:16;;;;;;;16.15;11.18;;;;;;;-1.75;91.27;98761.53;5058989;28;20068;-81
2021/12/07 13:03:44;;;;;;;18.77;11.45;;;;;;;-1.77;91.22;98755.59;5099489;28;20669;-81
2021/12/07 13:06:33;;;;;;;19.50;11.88;;;;;;;-1.81;91.06;98762.22;5105135;28;20528;-81
2021/12/07 13:09:19;;;;;;;18.90;12.18;;;;;;;-1.73;91.21;98759.53;5083280;28;20198;-82
2021/12/07 13:12:15;;;;;;;20.67;11.68;;;;;;;-1.73;90.99;98750.78;5096685;28;20039;-81
2021/12/07 13:15:06;;;;;;;19.70;12.43;;;;;;;-1.71;91.08;98757.53;5078985;28;20440;-82
2021/12/07 13:17:40;;;;;;;20.33;12.68;;;;;;;-1.70;91.19;98747.78;5051156;28;20159;-82
2021/12/07 13:20:39;;;;;;;22.52;13.13;;;;;;;-1.67;91.21;98750.06;5083361;28;20044;-80
2021/12/07 13:23:12;;;;;;;23.60;13.15;;;;;;;-1.68;91.04;98753.72;5098105;28;20047;-82
2021/12/07 13:25:48;;;;;;;22.85;12.65;;;;;;;-1.69;91.12;98752.09;5090663;28;20143;-82
2021/12/07 13:28:30;;;;;;;21.38;12.65;;;;;;;-1.71;91.28;98754.91;5110589;28;20124;-81
2021/12/07 13:31:12;;;;;;;22.35;12.85;;;;;;;-1.68;91.22;98751.09;5097593;28;20673;-82
2021/12/07 13:33:48;;;;;;;20.17;12.82;;;;;;;-1.64;91.51;98761.16;5079452;28;20077;-81